createdAt,value
2022-12-08T00:01:21.405Z,98665.25
2022-12-08T00:03:48.662Z,98658.31
2022-12-08T00:06:49.012Z,98658.25
2022-12-08T00:09:22.013Z,98661.81
2022-12-08T00:12:08.713Z,98655.75
2022-12-08T00:14:37.669Z,98653.00
2022-12-08T00:17:06.443Z,98650.31
2022-12-08T00:19:33.414Z,98656.41
2022-12-08T00:22:00.250Z,98651.16
2022-12-08T00:24:32.110Z,98648.56
2022-12-08T00:26:58.639Z,98646.81
2022-12-08T00:29:25.615Z,98643.25
2022-12-08T00:31:52.059Z,98651.34
2022-12-08T00:34:19.138Z,98646.06
2022-12-08T00:36:45.860Z,98647.75
2022-12-08T00:39:13.903Z,98641.63
2022-12-08T00:41:59.036Z,98645.09
2022-12-08T00:44:25.971Z,98641.56
2022-12-08T00:46:52.680Z,98634.63
2022-12-08T00:49:19.413Z,98635.50
2022-12-08T00:51:46.370Z,98633.75
2022-12-08T00:54:13.207Z,98630.22
2022-12-08T00:56:39.855Z,98628.47
2022-12-08T00:59:07.647Z,98628.53
2022-12-08T01:01:35.208Z,98633.81
2022-12-08T01:04:05.889Z,98641.75
2022-12-08T01:06:34.456Z,98638.25
2022-12-08T01:09:02.060Z,98638.22
2022-12-08T01:11:28.589Z,98640.91
2022-12-08T01:13:55.312Z,98639.19
2022-12-08T01:16:24.394Z,98641.84
2022-12-08T01:18:51.331Z,98642.75
2022-12-08T01:21:18.289Z,98636.66
2022-12-08T01:23:44.766Z,98634.84
2022-12-08T01:26:13.793Z,98634.75
2022-12-08T01:28:41.389Z,98628.63
2022-12-08T01:31:13.389Z,98631.31
2022-12-08T01:33:40.486Z,98626.91
2022-12-08T01:36:07.329Z,98633.97
2022-12-08T01:38:33.942Z,98642.84
2022-12-08T01:41:00.526Z,98636.75
2022-12-08T01:43:57.376Z,98627.03
2022-12-08T01:46:25.076Z,98621.63
2022-12-08T01:48:56.853Z,98621.59
2022-12-08T01:51:23.784Z,98614.47
2022-12-08T01:53:50.804Z,98620.72
2022-12-08T01:56:40.504Z,98613.75
2022-12-08T01:59:07.382Z,98606.72
2022-12-08T02:01:33.988Z,98597.88
2022-12-08T02:04:03.130Z,98598.81
2022-12-08T02:06:34.949Z,98600.66
2022-12-08T02:09:03.272Z,98602.41
2022-12-08T02:11:29.978Z,98595.41
2022-12-08T02:13:58.986Z,98591.97
2022-12-08T02:16:58.146Z,98586.84
2022-12-08T02:19:43.046Z,98587.81
2022-12-08T02:22:36.110Z,98586.25
2022-12-08T02:25:08.750Z,98584.69
2022-12-08T02:28:06.237Z,98585.81
2022-12-08T02:30:50.343Z,98578.00
2022-12-08T02:33:29.357Z,98582.41
2022-12-08T02:36:09.826Z,98576.44
2022-12-08T02:38:36.334Z,98582.63
2022-12-08T02:41:17.787Z,98584.50
2022-12-08T02:44:04.146Z,98582.75
2022-12-08T02:46:43.317Z,98578.25
2022-12-08T02:49:10.166Z,98573.97
2022-12-08T02:51:36.677Z,98570.41
2022-12-08T02:54:03.869Z,98581.84
2022-12-08T02:56:39.090Z,98574.94
2022-12-08T02:59:24.156Z,98577.59
2022-12-08T03:02:13.721Z,98573.19
2022-12-08T03:05:06.534Z,98558.75
2022-12-08T03:07:44.898Z,98562.00
2022-12-08T03:10:34.185Z,98562.00
2022-12-08T03:13:23.129Z,98561.81
2022-12-08T03:15:51.177Z,98563.38
2022-12-08T03:18:21.321Z,98562.56
2022-12-08T03:20:49.204Z,98558.41
2022-12-08T03:23:17.636Z,98552.22
2022-12-08T03:25:52.154Z,98552.22
2022-12-08T03:28:18.922Z,98551.47
2022-12-08T03:30:49.829Z,98551.50
2022-12-08T03:33:23.285Z,98540.91
2022-12-08T03:35:51.252Z,98546.00
2022-12-08T03:38:18.390Z,98542.31
2022-12-08T03:41:05.613Z,98543.06
2022-12-08T03:43:32.218Z,98532.47
2022-12-08T03:45:58.905Z,98533.19
2022-12-08T03:48:25.488Z,98536.47
2022-12-08T03:50:52.018Z,98527.78
2022-12-08T03:53:18.563Z,98529.34
2022-12-08T03:55:45.170Z,98523.06
2022-12-08T03:58:11.754Z,98521.34
2022-12-08T04:00:38.311Z,98517.00
2022-12-08T04:03:06.483Z,98521.47
2022-12-08T04:05:33.091Z,98523.16
2022-12-08T04:07:59.683Z,98512.56
2022-12-08T04:10:26.253Z,98513.41
2022-12-08T04:12:53.254Z,98502.81
2022-12-08T04:15:19.716Z,98511.53
2022-12-08T04:17:46.291Z,98509.59
2022-12-08T04:20:12.929Z,98513.97
2022-12-08T04:22:39.570Z,98519.25
2022-12-08T04:25:07.175Z,98513.00
2022-12-08T04:27:33.708Z,98504.31
2022-12-08T04:30:00.264Z,98505.13
2022-12-08T04:32:26.804Z,98503.22
2022-12-08T04:34:53.335Z,98504.09
2022-12-08T04:37:19.917Z,98504.19
2022-12-08T04:39:46.510Z,98505.91
2022-12-08T04:42:13.098Z,98506.81
2022-12-08T04:44:39.645Z,98501.56
2022-12-08T04:47:06.251Z,98504.19
2022-12-08T04:49:33.007Z,98506.81
2022-12-08T04:51:59.643Z,98503.28
2022-12-08T04:54:26.984Z,98502.38
2022-12-08T04:56:53.778Z,98500.63
2022-12-08T04:59:20.327Z,98501.50
2022-12-08T05:01:46.982Z,98498.94
2022-12-08T05:04:13.735Z,98497.97
2022-12-08T05:06:40.275Z,98497.97
2022-12-08T05:09:06.965Z,98494.53
2022-12-08T05:11:33.529Z,98498.06
2022-12-08T05:14:00.149Z,98507.81
2022-12-08T05:16:26.767Z,98501.78
2022-12-08T05:18:53.403Z,98498.47
2022-12-08T05:21:19.970Z,98493.28
2022-12-08T05:23:46.565Z,98492.63
2022-12-08T05:26:13.134Z,98494.28
2022-12-08T05:28:41.861Z,98496.19
2022-12-08T05:31:09.957Z,98490.03
2022-12-08T05:33:36.652Z,98492.66
2022-12-08T05:36:03.588Z,98485.50
2022-12-08T05:38:30.009Z,98481.13
2022-12-08T05:40:56.531Z,98477.72
2022-12-08T05:43:23.200Z,98481.41
2022-12-08T05:45:49.844Z,98477.91
2022-12-08T05:48:16.799Z,98476.16
2022-12-08T05:50:50.513Z,98476.97
2022-12-08T05:53:18.515Z,98480.56
2022-12-08T05:55:46.069Z,98472.72
2022-12-08T05:58:15.205Z,98484.16
2022-12-08T06:00:42.961Z,98486.09
2022-12-08T06:03:12.089Z,98476.63
2022-12-08T06:05:39.048Z,98475.66
2022-12-08T06:08:05.869Z,98475.84
2022-12-08T06:10:32.516Z,98471.59
2022-12-08T06:12:59.159Z,98475.88
2022-12-08T06:15:25.874Z,98474.13
2022-12-08T06:17:52.484Z,98478.75
2022-12-08T06:20:19.024Z,98478.81
2022-12-08T06:22:45.848Z,98477.13
2022-12-08T06:25:12.394Z,98476.13
2022-12-08T06:27:38.981Z,98477.78
2022-12-08T06:30:06.693Z,98480.28
2022-12-08T06:32:33.494Z,98486.56
2022-12-08T06:35:00.223Z,98481.00
2022-12-08T06:37:26.791Z,98486.19
2022-12-08T06:39:53.690Z,98488.59
2022-12-08T06:42:38.647Z,98486.84
2022-12-08T06:45:05.830Z,98491.25
2022-12-08T06:47:32.368Z,98493.22
2022-12-08T06:49:58.987Z,98487.94
2022-12-08T06:52:25.663Z,98486.00
2022-12-08T06:54:52.308Z,98490.28
2022-12-08T06:57:18.818Z,98489.59
2022-12-08T06:59:45.459Z,98487.50
2022-12-08T07:02:11.981Z,98486.78
2022-12-08T07:04:38.549Z,98483.91
2022-12-08T07:07:05.161Z,98486.25
2022-12-08T07:09:31.666Z,98493.13
2022-12-08T07:11:58.258Z,98488.69
2022-12-08T07:14:25.002Z,98481.53
2022-12-08T07:16:52.319Z,98491.25
2022-12-08T07:19:19.428Z,98497.31
2022-12-08T07:21:45.925Z,98498.25
2022-12-08T07:24:12.470Z,98499.91
2022-12-08T07:26:39.925Z,98497.31
2022-12-08T07:29:06.488Z,98506.88
2022-12-08T07:31:33.104Z,98510.56
2022-12-08T07:33:59.674Z,98510.34
2022-12-08T07:36:26.387Z,98510.31
2022-12-08T07:38:53.791Z,98505.84
2022-12-08T07:41:23.614Z,98496.16
2022-12-08T07:43:51.102Z,98499.66
2022-12-08T07:46:20.542Z,98507.63
2022-12-08T07:48:47.615Z,98503.06
2022-12-08T07:51:14.915Z,98494.16
2022-12-08T07:53:45.366Z,98497.75
2022-12-08T07:56:15.510Z,98493.41
2022-12-08T07:58:42.139Z,98489.91
2022-12-08T08:01:20.030Z,98498.72
2022-12-08T08:03:46.639Z,98495.97
2022-12-08T08:06:13.175Z,98495.97
2022-12-08T08:08:39.692Z,98497.66
2022-12-08T08:11:15.765Z,98502.16
2022-12-08T08:13:46.000Z,98498.63
2022-12-08T08:16:15.776Z,98494.16
2022-12-08T08:18:43.546Z,98507.28
2022-12-08T08:21:43.239Z,98497.53
2022-12-08T08:23:56.536Z,98497.38
2022-12-08T08:26:23.023Z,98498.97
2022-12-08T08:28:50.164Z,98500.63
2022-12-08T08:31:16.756Z,98499.63
2022-12-08T08:33:43.239Z,98489.81
2022-12-08T08:36:10.287Z,98490.75
2022-12-08T08:38:42.841Z,98486.19
2022-12-08T08:41:12.675Z,98490.31
2022-12-08T08:43:39.619Z,98490.03
2022-12-08T08:46:08.810Z,98491.59
2022-12-08T08:48:35.795Z,98495.69
2022-12-08T08:51:10.838Z,98496.53
2022-12-08T08:53:37.725Z,98503.50
2022-12-08T08:56:12.460Z,98505.34
2022-12-08T08:58:39.293Z,98503.19
2022-12-08T09:01:06.552Z,98503.53
2022-12-08T09:03:33.604Z,98496.16
2022-12-08T09:06:00.453Z,98506.03
2022-12-08T09:08:27.245Z,98504.88
2022-12-08T09:10:54.662Z,98506.63
2022-12-08T09:13:22.286Z,98508.34
2022-12-08T09:15:49.118Z,98499.72
2022-12-08T09:18:15.749Z,98510.72
2022-12-08T09:20:42.467Z,98507.13
2022-12-08T09:23:09.130Z,98502.97
2022-12-08T09:25:35.651Z,98503.59
2022-12-08T09:28:02.151Z,98507.66
2022-12-08T09:30:28.679Z,98497.22
2022-12-08T09:32:55.257Z,98502.84
2022-12-08T09:35:21.797Z,98499.94
2022-12-08T09:37:48.335Z,98503.13
2022-12-08T09:40:18.765Z,98495.75
2022-12-08T09:43:10.291Z,98486.03
2022-12-08T09:45:39.670Z,98496.13
2022-12-08T09:48:12.911Z,98492.13
2022-12-08T09:50:53.676Z,98483.69
2022-12-08T09:53:32.058Z,98474.34
2022-12-08T09:56:08.749Z,98474.00
2022-12-08T09:58:47.600Z,98477.47
2022-12-08T10:01:14.689Z,98469.72
2022-12-08T10:03:42.038Z,98465.38
2022-12-08T10:06:33.619Z,98465.91
2022-12-08T10:09:12.811Z,98462.97
2022-12-08T10:12:01.128Z,98467.34
2022-12-08T10:14:33.718Z,98461.50
2022-12-08T10:17:16.391Z,98460.53
2022-12-08T10:19:43.991Z,98461.72
2022-12-08T10:22:23.339Z,98452.38
2022-12-08T10:25:00.921Z,98460.94
2022-12-08T10:27:28.015Z,98459.13
2022-12-08T10:29:54.459Z,98456.00
2022-12-08T10:32:23.749Z,98449.81
2022-12-08T10:35:15.074Z,98448.13
2022-12-08T10:37:41.756Z,98451.78
2022-12-08T10:40:13.003Z,98451.16
2022-12-08T10:42:46.988Z,98437.81
2022-12-08T10:45:44.671Z,98436.06
2022-12-08T10:48:24.277Z,98447.53
2022-12-08T10:50:50.742Z,98444.03
2022-12-08T10:53:26.185Z,98435.16
2022-12-08T10:56:05.017Z,98431.66
2022-12-08T10:58:42.505Z,98428.88
2022-12-08T11:01:18.519Z,98431.44
2022-12-08T11:03:45.071Z,98423.56
2022-12-08T11:06:20.634Z,98426.97
2022-12-08T11:08:56.580Z,98418.97
2022-12-08T11:11:44.999Z,98422.41
2022-12-08T11:14:22.771Z,98416.88
2022-12-08T11:16:51.672Z,98411.63
2022-12-08T11:19:19.856Z,98410.66
2022-12-08T11:21:47.316Z,98411.34
2022-12-08T11:24:26.396Z,98407.66
2022-12-08T11:27:04.687Z,98411.34
2022-12-08T11:29:33.868Z,98410.81
2022-12-08T11:32:11.628Z,98406.25
2022-12-08T11:34:44.045Z,98405.63
2022-12-08T11:37:24.134Z,98392.06
2022-12-08T11:39:55.345Z,98396.53
2022-12-08T11:42:31.281Z,98381.97
2022-12-08T11:45:00.334Z,98377.47
2022-12-08T11:47:35.200Z,98369.38
2022-12-08T11:50:26.709Z,98388.78
2022-12-08T11:52:53.216Z,98389.25
2022-12-08T11:55:37.335Z,98395.38
2022-12-08T11:58:16.485Z,98390.19
2022-12-08T12:00:43.072Z,98387.81
2022-12-08T12:03:28.645Z,98384.56
2022-12-08T12:09:17.806Z,98376.94
2022-12-08T12:12:15.808Z,98381.56
2022-12-08T12:15:10.263Z,98384.25
2022-12-08T12:17:44.181Z,98386.75
2022-12-08T12:20:28.903Z,98382.28
2022-12-08T12:23:02.531Z,98381.31
2022-12-08T12:25:29.808Z,98380.13
2022-12-08T12:28:00.875Z,98371.03
2022-12-08T12:30:36.045Z,98367.41
2022-12-08T12:33:08.820Z,98370.19
2022-12-08T12:35:42.636Z,98370.28
2022-12-08T12:38:40.561Z,98364.41
2022-12-08T12:41:08.849Z,98365.25
2022-12-08T12:43:38.659Z,98359.81
2022-12-08T12:46:23.389Z,98360.09
2022-12-08T12:48:53.154Z,98363.69
2022-12-08T12:51:39.334Z,98361.44
2022-12-08T12:54:29.454Z,98355.25
2022-12-08T12:57:20.762Z,98353.69
2022-12-08T12:59:55.500Z,98353.63
2022-12-08T13:02:32.088Z,98347.47
2022-12-08T13:05:25.106Z,98350.22
2022-12-08T13:08:07.216Z,98339.72
2022-12-08T13:10:39.533Z,98345.81
2022-12-08T13:13:18.125Z,98344.97
2022-12-08T13:15:52.992Z,98338.91
2022-12-08T13:18:42.607Z,98340.63
2022-12-08T13:21:09.180Z,98331.84
2022-12-08T13:23:38.608Z,98334.78
2022-12-08T13:26:15.363Z,98323.47
2022-12-08T13:29:01.304Z,98331.66
2022-12-08T13:31:37.538Z,98329.03
2022-12-08T13:34:16.981Z,98334.19
2022-12-08T13:37:01.112Z,98329.00
2022-12-08T13:39:41.019Z,98331.59
2022-12-08T13:42:12.902Z,98329.16
2022-12-08T13:47:59.557Z,98330.88
2022-12-08T13:52:33.060Z,98332.41
2022-12-08T13:57:00.768Z,98326.97
2022-12-08T13:59:10.601Z,98326.97
2022-12-08T14:01:44.869Z,98335.84
2022-12-08T14:07:04.211Z,98333.03
2022-12-08T14:09:36.780Z,98322.34
2022-12-08T14:12:17.497Z,98326.97
2022-12-08T14:15:02.712Z,98333.13
2022-12-08T14:17:30.228Z,98338.56
2022-12-08T14:20:12.122Z,98335.97
2022-12-08T14:22:40.954Z,98339.63
2022-12-08T14:25:13.940Z,98339.72
2022-12-08T14:27:40.772Z,98338.88
2022-12-08T14:30:14.160Z,98341.38
2022-12-08T14:32:45.042Z,98339.72
2022-12-08T14:35:22.300Z,98338.03
2022-12-08T14:37:51.572Z,98329.31
2022-12-08T14:40:22.801Z,98332.06
2022-12-08T14:43:15.734Z,98327.78
2022-12-08T14:45:42.127Z,98321.63
2022-12-08T14:48:27.206Z,98317.34
2022-12-08T14:51:06.038Z,98323.84
2022-12-08T14:53:42.507Z,98330.00
2022-12-08T14:56:22.145Z,98331.81
2022-12-08T14:58:51.105Z,98326.72
2022-12-08T15:01:23.415Z,98337.56
2022-12-08T15:03:51.429Z,98331.38
2022-12-08T15:06:21.468Z,98333.34
2022-12-08T15:08:53.639Z,98330.50
2022-12-08T15:11:23.168Z,98336.63
2022-12-08T15:13:52.141Z,98336.91
2022-12-08T15:16:45.014Z,98341.38
2022-12-08T15:19:28.478Z,98336.00
2022-12-08T15:21:58.324Z,98342.47
2022-12-08T15:24:29.514Z,98346.19
2022-12-08T15:26:56.225Z,98348.00
2022-12-08T15:29:28.490Z,98344.44
2022-12-08T15:32:01.261Z,98352.34
2022-12-08T15:34:27.970Z,98352.59
2022-12-08T15:36:55.256Z,98356.41
2022-12-08T15:39:38.044Z,98355.75
2022-12-08T15:42:10.924Z,98359.06
2022-12-08T15:44:37.380Z,98354.97
2022-12-08T15:47:04.352Z,98354.91
2022-12-08T15:49:30.867Z,98352.72
2022-12-08T15:52:08.046Z,98352.06
2022-12-08T15:54:37.862Z,98353.94
2022-12-08T15:57:19.506Z,98353.91
2022-12-08T15:59:51.634Z,98353.09
2022-12-08T16:02:22.620Z,98351.53
2022-12-08T16:07:38.250Z,98353.94
2022-12-08T16:10:06.873Z,98343.50
2022-12-08T16:16:00.686Z,98337.44
2022-12-08T16:18:31.560Z,98349.00
2022-12-08T16:21:31.622Z,98353.53
2022-12-08T16:23:45.480Z,98352.72
2022-12-08T16:26:44.402Z,98347.31
2022-12-08T16:29:05.929Z,98350.88
2022-12-08T16:31:32.812Z,98347.09
2022-12-08T16:33:59.267Z,98352.44
2022-12-08T16:36:25.697Z,98353.31
2022-12-08T16:38:52.224Z,98354.78
2022-12-08T16:41:37.649Z,98349.41
2022-12-08T16:44:05.944Z,98346.97
2022-12-08T16:46:34.795Z,98340.97
2022-12-08T16:49:01.539Z,98345.19
2022-12-08T16:51:28.032Z,98346.00
2022-12-08T16:53:56.864Z,98343.22
2022-12-08T16:56:30.414Z,98341.53
2022-12-08T16:58:59.079Z,98342.19
2022-12-08T17:01:25.670Z,98347.47
2022-12-08T17:04:22.330Z,98342.75
2022-12-08T17:06:38.638Z,98346.13
2022-12-08T17:09:05.360Z,98349.94
2022-12-08T17:11:37.446Z,98349.94
2022-12-08T17:14:05.867Z,98349.75
2022-12-08T17:16:32.480Z,98349.88
2022-12-08T17:18:59.043Z,98353.25
2022-12-08T17:21:25.715Z,98357.56
2022-12-08T17:23:52.225Z,98353.09
2022-12-08T17:26:18.804Z,98347.09
2022-12-08T17:29:00.526Z,98349.38
2022-12-08T17:31:30.170Z,98355.56
2022-12-08T17:34:05.929Z,98367.03
2022-12-08T17:36:32.708Z,98353.69
2022-12-08T17:39:00.504Z,98359.84
2022-12-08T17:41:28.184Z,98367.66
2022-12-08T17:43:54.736Z,98360.75
2022-12-08T17:46:22.115Z,98362.53
2022-12-08T17:48:49.348Z,98359.78
2022-12-08T17:51:16.344Z,98364.28
2022-12-08T17:53:42.849Z,98362.34
2022-12-08T17:56:17.497Z,98357.09
2022-12-08T17:58:45.588Z,98359.84
2022-12-08T18:01:13.352Z,98361.81
2022-12-08T18:03:40.969Z,98363.47
2022-12-08T18:06:10.345Z,98357.31
2022-12-08T18:08:37.344Z,98358.47
2022-12-08T18:11:04.722Z,98367.28
2022-12-08T18:13:31.734Z,98361.13
2022-12-08T18:15:58.083Z,98369.97
2022-12-08T18:18:24.572Z,98367.41
2022-12-08T18:20:51.090Z,98357.63
2022-12-08T18:23:18.036Z,98359.31
2022-12-08T18:25:47.285Z,98363.91
2022-12-08T18:28:13.795Z,98360.28
2022-12-08T18:30:40.591Z,98362.78
2022-12-08T18:33:07.635Z,98359.44
2022-12-08T18:35:34.152Z,98351.69
2022-12-08T18:38:00.715Z,98345.81
2022-12-08T18:40:30.614Z,98349.22
2022-12-08T18:42:57.100Z,98358.78
2022-12-08T18:45:23.698Z,98362.94
2022-12-08T18:47:52.887Z,98356.66
2022-12-08T18:50:19.357Z,98356.72
2022-12-08T18:52:46.685Z,98361.91
2022-12-08T18:55:14.108Z,98364.56
2022-12-08T18:57:43.206Z,98358.16
2022-12-08T19:00:15.851Z,98352.84
2022-12-08T19:02:42.582Z,98361.66
2022-12-08T19:05:11.301Z,98363.53
2022-12-08T19:07:38.261Z,98363.66
2022-12-08T19:10:06.271Z,98365.47
2022-12-08T19:12:32.939Z,98368.03
2022-12-08T19:14:59.415Z,98360.34
2022-12-08T19:17:25.970Z,98365.63
2022-12-08T19:19:52.481Z,98368.91
2022-12-08T19:22:18.972Z,98367.94
2022-12-08T19:24:45.743Z,98365.28
2022-12-08T19:27:12.279Z,98371.56
2022-12-08T19:29:38.761Z,98368.91
2022-12-08T19:32:05.261Z,98360.09
2022-12-08T19:34:31.870Z,98363.78
2022-12-08T19:36:58.380Z,98368.84
2022-12-08T19:39:43.384Z,98361.78
2022-12-08T19:42:37.424Z,98370.63
2022-12-08T19:45:19.899Z,98372.25
2022-12-08T19:47:46.526Z,98363.59
2022-12-08T19:50:33.130Z,98375.22
2022-12-08T19:52:59.592Z,98371.41
2022-12-08T19:55:26.593Z,98368.13
2022-12-08T19:57:53.249Z,98367.22
2022-12-08T20:00:20.495Z,98365.06
2022-12-08T20:02:47.336Z,98370.31
2022-12-08T20:05:14.410Z,98370.31
2022-12-08T20:07:41.171Z,98373.00
2022-12-08T20:10:14.305Z,98372.97
2022-12-08T20:12:40.873Z,98378.25
2022-12-08T20:15:10.214Z,98381.88
2022-12-08T20:17:38.160Z,98388.94
2022-12-08T20:20:07.703Z,98394.19
2022-12-08T20:22:34.660Z,98389.97
2022-12-08T20:25:01.550Z,98397.03
2022-12-08T20:27:29.064Z,98397.09
2022-12-08T20:29:55.691Z,98396.38
2022-12-08T20:32:22.246Z,98399.91
2022-12-08T20:34:48.973Z,98401.06
2022-12-08T20:37:15.508Z,98396.75
2022-12-08T20:39:41.963Z,98406.41
2022-12-08T20:42:12.684Z,98396.63
2022-12-08T20:44:43.343Z,98404.72
2022-12-08T20:47:11.002Z,98403.75
2022-12-08T20:49:38.124Z,98403.25
2022-12-08T20:52:04.655Z,98405.72
2022-12-08T20:54:31.337Z,98410.31
2022-12-08T20:56:57.866Z,98400.63
2022-12-08T20:59:26.392Z,98411.41
2022-12-08T21:01:54.004Z,98405.31
2022-12-08T21:04:21.907Z,98418.63
2022-12-08T21:06:49.661Z,98419.59
2022-12-08T21:09:16.628Z,98418.00
2022-12-08T21:11:43.372Z,98418.88
2022-12-08T21:14:09.926Z,98412.78
2022-12-08T21:16:36.597Z,98412.00
2022-12-08T21:19:03.692Z,98422.59
2022-12-08T21:21:30.312Z,98416.53
2022-12-08T21:23:57.021Z,98422.22
2022-12-08T21:26:26.079Z,98418.94
2022-12-08T21:28:56.477Z,98419.91
2022-12-08T21:31:23.574Z,98420.06
2022-12-08T21:33:50.224Z,98423.22
2022-12-08T21:36:19.377Z,98420.56
2022-12-08T21:38:46.952Z,98424.41
2022-12-08T21:41:16.308Z,98421.66
2022-12-08T21:43:43.246Z,98419.25
2022-12-08T21:46:16.908Z,98434.53
2022-12-08T21:48:43.872Z,98431.72
2022-12-08T21:51:10.364Z,98433.63
2022-12-08T21:53:37.082Z,98432.03
2022-12-08T21:56:09.166Z,98431.28
2022-12-08T21:58:36.012Z,98429.56
2022-12-08T22:01:10.309Z,98430.50
2022-12-08T22:03:39.194Z,98423.47
2022-12-08T22:06:11.169Z,98425.22
2022-12-08T22:08:38.350Z,98423.47
2022-12-08T22:11:05.692Z,98420.81
2022-12-08T22:13:36.624Z,98423.41
2022-12-08T22:16:06.172Z,98422.63
2022-12-08T22:18:33.873Z,98422.56
2022-12-08T22:21:00.557Z,98419.13
2022-12-08T22:23:28.372Z,98423.34
2022-12-08T22:26:02.581Z,98420.78
2022-12-08T22:28:32.723Z,98423.34
2022-12-08T22:30:59.664Z,98424.22
2022-12-08T22:33:29.015Z,98423.50
2022-12-08T22:36:06.346Z,98426.13
2022-12-08T22:38:36.577Z,98427.91
2022-12-08T22:41:05.623Z,98417.38
2022-12-08T22:43:32.710Z,98416.59
2022-12-08T22:45:59.317Z,98423.66
2022-12-08T22:48:26.132Z,98423.66
2022-12-08T22:50:59.720Z,98421.84
2022-12-08T22:53:26.523Z,98425.28
2022-12-08T22:55:53.424Z,98422.56
2022-12-08T22:58:20.361Z,98427.84
2022-12-08T23:00:46.854Z,98426.91
2022-12-08T23:03:13.605Z,98422.56
2022-12-08T23:05:40.706Z,98433.97
2022-12-08T23:08:08.856Z,98426.03
2022-12-08T23:10:36.300Z,98419.78
2022-12-08T23:13:04.222Z,98430.41
2022-12-08T23:15:31.575Z,98433.00
2022-12-08T23:17:58.086Z,98429.56
2022-12-08T23:20:24.564Z,98426.91
2022-12-08T23:22:51.305Z,98426.84
2022-12-08T23:25:18.523Z,98419.81
2022-12-08T23:27:46.039Z,98423.34
2022-12-08T23:30:13.697Z,98428.66
2022-12-08T23:32:40.412Z,98426.91
2022-12-08T23:35:07.966Z,98432.34
2022-12-08T23:37:34.507Z,98432.34
2022-12-08T23:40:01.074Z,98430.53
2022-12-08T23:42:32.332Z,98424.31
2022-12-08T23:45:04.324Z,98428.75
2022-12-08T23:50:14.040Z,98427.03
2022-12-08T23:52:40.644Z,98428.81
2022-12-08T23:55:07.858Z,98426.19
2022-12-08T23:57:38.525Z,98426.28
